Time;durP1;ratioP1;P1;durP2;ratioP2;P2;SDS_P1;SDS_P2;PMS_P1;PMS_P2;Temp;Humidity;BMP_temperature;BMP_pressure;BME280_temperature;BME280_humidity;BME280_pressure;Samples;Min_cycle;Max_cycle;Signal;HPM_P1;HPM_P2
2022/10/30 06:25:08;;;;;;;;;;;;;;;;;;;;;
2022/10/30 06:38:29;;;;;;;12.10;7.37;;;14.90;99.90;;;;;;6246776;22;20399;-84
2022/10/30 06:41:57;;;;;;;;;;;;;;;;;;;;;
2022/10/30 06:45:09;;;;;;;;;;;;;;;;;;;;;
2022/10/30 06:51:26;;;;;;;16.17;8.80;;;15.20;61.20;;;;;;6283837;22;20486;-85
2022/10/30 06:54:42;;;;;;;;;;;;;;;;;;;;;
2022/10/30 06:57:57;;;;;;;;;;;;;;;;;;;;;
2022/10/30 07:00:41;;;;;;;13.77;7.97;;;15.90;99.90;;;;;;6299070;22;20452;-85
2022/10/30 07:35:33;;;;;;;;;;;;;;;;;;;;;
2022/10/30 07:42:05;;;;;;;;;;;;;;;;;;;;;
2022/10/30 11:34:19;;;;;;;;;;;;;;;;;;;;;
2022/10/30 12:57:14;;;;;;;;;;;;;;;;;;;;;
2022/10/30 13:00:14;;;;;;;;;;;;;;;;;;;;;
2022/10/30 13:20:44;;;;;;;;;;;;;;;;;;;;;
2022/10/30 13:37:30;;;;;;;;;;;;;;;;;;;;;
2022/10/30 13:41:09;;;;;;;;;;;;;;;;;;;;;
2022/10/30 13:44:09;;;;;;;;;;;;;;;;;;;;;
2022/10/30 13:47:22;;;;;;;;;;;;;;;;;;;;;
2022/10/30 14:00:45;;;;;;;;;;;;;;;;;;;;;
2022/10/30 14:07:26;;;;;;;;;;;;;;;;;;;;;
2022/10/30 14:28:09;;;;;;;;;;;;;;;;;;;;;
2022/10/30 14:31:20;;;;;;;;;;;;;;;;;;;;;
2022/10/30 14:41:06;;;;;;;;;;;;;;;;;;;;;
2022/10/30 14:44:17;;;;;;;10.00;4.10;;;28.50;99.90;;;;;;6246840;23;20431;-83
2022/10/30 14:47:10;;;;;;;7.27;3.30;;;28.20;99.90;;;;;;6224501;23;20399;-83
2022/10/30 14:50:15;;;;;;;;;;;;;;;;;;;;;
2022/10/30 14:53:36;;;;;;;;;;;;;;;;;;;;;
2022/10/30 14:56:35;;;;;;;8.23;3.57;;;27.80;99.90;;;;;;6245555;23;20431;-85
2022/10/30 15:03:17;;;;;;;;;;;;;;;;;;;;;
2022/10/30 15:20:01;;;;;;;;;;;;;;;;;;;;;
2022/10/30 15:33:33;;;;;;;7.90;3.50;;;26.30;99.90;;;;;;6234663;23;20408;-84
2022/10/30 15:36:29;;;;;;;8.97;3.90;;;26.00;99.90;;;;;;6245962;23;20380;-84
2022/10/30 15:39:18;;;;;;;;;;;;;;;;;;;;;
2022/10/30 15:41:47;;;;;;;6.73;3.80;;;25.50;99.90;;;;;;6245313;22;20516;-83
2022/10/30 15:44:17;;;;;;;11.70;4.00;;;25.30;99.90;;;;;;6246174;23;20409;-83
2022/10/30 15:46:47;;;;;;;8.47;4.07;;;25.10;99.90;;;;;;6247350;23;20741;-83
2022/10/30 15:49:18;;;;;;;6.87;3.30;;;24.90;99.90;;;;;;6251926;23;20373;-83
2022/10/30 15:51:46;;;;;;;9.43;3.63;;;24.70;99.90;;;;;;6227439;23;20493;-83
2022/10/30 15:54:52;;;;;;;11.00;4.17;;;24.50;99.90;;;;;;6243928;23;20435;-83
2022/10/30 16:01:44;;;;;;;8.27;4.10;;;24.20;99.90;;;;;;6231375;22;20401;-83
2022/10/30 16:04:41;;;;;;;10.80;4.13;;;23.90;99.90;;;;;;6248152;23;20395;-83
2022/10/30 16:07:53;;;;;;;;;;;;;;;;;;;;;
2022/10/30 16:10:33;;;;;;;10.33;3.57;;;23.50;99.90;;;;;;6249691;23;20414;-83
2022/10/30 16:13:08;;;;;;;9.53;4.00;;;23.30;99.90;;;;;;6226166;23;20374;-82
2022/10/30 16:15:56;;;;;;;9.20;5.00;;;23.10;99.90;;;;;;6224977;23;20394;-82
2022/10/30 16:18:31;;;;;;;17.23;7.77;;;22.90;99.90;;;;;;6224840;23;20375;-82
2022/10/30 16:21:04;;;;;;;16.07;8.07;;;22.70;99.90;;;;;;6225904;23;20405;-83
2022/10/30 16:23:42;;;;;;;12.83;6.27;;;22.60;99.90;;;;;;6225086;23;20826;-83
2022/10/30 16:26:28;;;;;;;10.70;5.10;;;22.50;99.90;;;;;;6253116;23;20357;-82
2022/10/30 16:28:58;;;;;;;9.90;3.63;;;22.30;99.90;;;;;;6225121;23;20379;-83
2022/10/30 16:31:34;;;;;;;11.77;4.33;;;22.20;99.90;;;;;;6227753;23;20432;-83
2022/10/30 16:34:02;;;;;;;8.47;3.83;;;22.10;99.90;;;;;;6227594;23;20396;-83
2022/10/30 16:36:28;;;;;;;7.53;4.03;;;22.00;99.90;;;;;;6255904;23;20417;-83
2022/10/30 16:38:55;;;;;;;14.30;4.07;;;22.00;99.90;;;;;;6255111;23;20384;-83
2022/10/30 16:41:21;;;;;;;10.80;3.83;;;21.90;99.90;;;;;;6228026;23;20503;-83
2022/10/30 16:44:11;;;;;;;13.83;4.83;;;21.90;99.90;;;;;;6255122;23;20393;-82
2022/10/30 16:46:49;;;;;;;10.53;4.00;;;21.80;99.90;;;;;;6252617;23;20158;-84
2022/10/30 16:49:22;;;;;;;9.50;4.20;;;21.80;99.90;;;;;;6226343;23;20893;-83
2022/10/30 16:51:54;;;;;;;12.53;4.30;;;21.70;99.90;;;;;;6254686;22;20392;-83
2022/10/30 16:54:23;;;;;;;10.20;4.10;;;21.70;99.90;;;;;;6255425;23;20367;-83
2022/10/30 16:56:52;;;;;;;9.33;4.47;;;21.60;99.90;;;;;;6226268;23;20385;-83
2022/10/30 16:59:30;;;;;;;7.93;4.00;;;21.50;99.90;;;;;;6225983;23;20480;-83
2022/10/30 17:02:03;;;;;;;8.50;4.40;;;21.50;99.90;;;;;;6226639;23;20423;-83
2022/10/30 17:04:29;;;;;;;10.37;3.73;;;21.40;99.90;;;;;;6252695;23;20395;-83
2022/10/30 17:07:05;;;;;;;11.00;4.27;;;21.30;99.90;;;;;;6228269;23;20392;-83
2022/10/30 17:09:37;;;;;;;7.50;3.70;;;21.30;99.90;;;;;;6228083;23;20180;-83
2022/10/30 17:12:11;;;;;;;5.70;3.30;;;21.30;99.90;;;;;;6253397;22;20495;-83
2022/10/30 17:14:50;;;;;;;8.17;4.10;;;21.20;99.90;;;;;;6226592;23;20419;-84
2022/10/30 17:17:36;;;;;;;10.53;4.37;;;21.20;99.90;;;;;;6226828;23;20409;-83
2022/10/30 17:20:25;;;;;;;8.20;3.70;;;21.10;99.90;;;;;;6253415;23;20711;-83
2022/10/30 17:23:05;;;;;;;9.33;4.40;;;21.10;99.90;;;;;;6225262;23;20380;-84
2022/10/30 17:25:36;;;;;;;14.30;5.23;;;21.00;99.90;;;;;;6253870;23;20364;-84
2022/10/30 17:28:03;;;;;;;7.50;4.97;;;21.00;99.90;;;;;;6251894;23;20430;-83
2022/10/30 17:30:36;;;;;;;9.63;4.27;;;21.00;99.90;;;;;;6225754;22;20387;-83
2022/10/30 17:33:30;;;;;;;12.07;5.57;;;21.00;99.90;;;;;;6253861;23;20404;-83
2022/10/30 17:35:56;;;;;;;13.27;4.63;;;21.00;99.90;;;;;;6253645;23;20693;-83
2022/10/30 17:38:21;;;;;;;14.73;5.67;;;21.00;99.90;;;;;;6226263;23;20610;-83
2022/10/30 17:40:47;;;;;;;9.60;5.00;;;20.90;99.90;;;;;;6251617;22;20188;-84
2022/10/30 17:43:14;;;;;;;10.10;4.70;;;21.00;99.90;;;;;;6226583;23;20165;-84
2022/10/30 17:45:42;;;;;;;11.70;5.00;;;21.00;99.90;;;;;;6227183;23;20599;-84
2022/10/30 17:48:16;;;;;;;11.20;5.20;;;20.90;99.90;;;;;;6225161;23;20795;-83
2022/10/30 17:50:42;;;;;;;8.57;4.77;;;21.00;99.90;;;;;;6227270;22;20392;-83
2022/10/30 17:53:20;;;;;;;11.07;4.13;;;21.00;99.90;;;;;;6224796;23;20424;-83
2022/10/30 17:56:18;;;;;;;;;;;;;;;;;;;;;
2022/10/30 17:59:37;;;;;;;;;;;;;;;;;;;;;
2022/10/30 18:05:37;;;;;;;13.47;5.10;;;20.70;99.90;;;;;;6242485;23;20415;-83
2022/10/30 18:08:30;;;;;;;;;;;;;;;;;;;;;
2022/10/30 18:14:18;;;;;;;10.93;4.60;;;20.60;99.90;;;;;;6253418;23;20922;-83
2022/10/30 18:17:34;;;;;;;9.87;4.43;;;20.50;99.90;;;;;;6226273;23;20446;-84
2022/10/30 18:23:55;;;;;;;8.17;4.00;;;20.40;99.90;;;;;;6242633;23;20743;-83
2022/10/30 18:27:02;;;;;;;8.57;4.23;;;20.30;99.90;;;;;;6218140;23;20381;-84
2022/10/30 18:29:30;;;;;;;10.07;4.93;;;20.30;99.90;;;;;;6213025;23;20390;-83
2022/10/30 18:32:29;;;;;;;;;;;;;;;;;;;;;
2022/10/30 18:35:47;;;;;;;;;;;;;;;;;;;;;
2022/10/30 18:45:16;;;;;;;9.63;5.07;;;20.10;99.90;;;;;;6230602;23;20437;-83
2022/10/30 18:52:16;;;;;;;10.53;5.27;;;20.10;99.90;;;;;;6241746;22;20435;-83
2022/10/30 19:05:04;;;;;;;;;;;;;;;;;;;;;
2022/10/30 19:14:09;;;;;;;;;;;;;;;;;;;;;
2022/10/30 19:20:07;;;;;;;11.27;5.00;;;19.50;99.90;;;;;;6237262;23;20402;-85
2022/10/30 19:23:00;;;;;;;;;;;;;;;;;;;;;
2022/10/30 19:25:40;;;;;;;7.90;4.63;;;19.40;99.90;;;;;;6255493;23;20390;-84
2022/10/30 19:31:32;;;;;;;10.40;4.77;;;19.30;99.90;;;;;;6230320;22;20487;-84
2022/10/30 19:38:01;;;;;;;;;;;;;;;;;;;;;
2022/10/30 19:41:10;;;;;;;9.77;5.40;;;19.10;99.90;;;;;;6253700;22;20804;-84
2022/10/30 19:44:22;;;;;;;12.73;5.50;;;19.10;99.90;;;;;;6227610;23;20394;-83
2022/10/30 19:47:41;;;;;;;;;;;;;;;;;;;;;
2022/10/30 19:53:38;;;;;;;13.90;5.67;;;19.00;99.90;;;;;;6239027;23;20458;-83
2022/10/30 19:56:11;;;;;;;9.70;5.90;;;18.90;99.90;;;;;;6227823;23;20372;-83
2022/10/30 19:58:37;;;;;;;19.50;7.20;;;18.90;99.90;;;;;;6227971;23;20378;-83
2022/10/30 20:01:12;;;;;;;11.17;6.00;;;18.90;99.90;;;;;;6226299;23;20411;-83
2022/10/30 20:04:17;;;;;;;14.57;5.43;;;18.80;99.90;;;;;;6253478;23;20144;-83
2022/10/30 20:07:03;;;;;;;13.23;6.00;;;18.80;99.90;;;;;;6226685;23;20379;-84
2022/10/30 20:12:42;;;;;;;19.60;6.40;;;18.70;99.90;;;;;;6248764;22;20470;-84
2022/10/30 20:15:15;;;;;;;9.93;5.83;;;18.60;99.90;;;;;;6228355;23;20369;-84
2022/10/30 20:24:08;;;;;;;10.63;6.10;;;18.50;99.90;;;;;;6234598;23;20465;-84
2022/10/30 20:26:41;;;;;;;8.20;6.10;;;18.40;99.90;;;;;;6228975;23;20393;-84
2022/10/30 20:29:28;;;;;;;;;;;;;;;;;;;;;
2022/10/30 20:32:16;;;;;;;10.50;6.47;;;18.40;99.90;;;;;;6252510;22;20456;-84
2022/10/30 20:38:30;;;;;;;9.27;5.60;;;18.30;99.90;;;;;;6241759;23;20387;-84
2022/10/30 20:41:36;;;;;;;15.30;5.97;;;18.40;99.90;;;;;;6248665;22;20420;-83
2022/10/30 20:44:13;;;;;;;17.20;7.97;;;18.30;99.90;;;;;;6221836;23;20394;-84
2022/10/30 20:47:12;;;;;;;14.73;5.80;;;18.30;99.90;;;;;;6254115;23;20384;-84
2022/10/30 20:49:50;;;;;;;;;;;;;;;;;;;;;
